Date,TemperatureHighF,TemperatureAvgF,TemperatureLowF,DewpointHighF,DewpointAvgF,DewpointLowF,HumidityHigh,HumidityAvg,HumidityLow,PressureMaxIn,PressureMinIn,WindSpeedMaxMPH,WindSpeedAvgMPH,GustSpeedMaxMPH,PrecipitationSumIn
2013-1-1,42.0,39.5,37.0,42.0,38.9,31.0,100,97,73,27.92,27.78,2,0,3,0.55
2013-1-2,44.0,39.7,36.0,43.0,39.7,36.0,100,100,95,27.96,27.74,9,0,9,0.04
2013-1-3,41.0,35.5,26.0,40.0,35.0,26.0,100,98,77,28.10,27.90,9,0,9,0.00
2013-1-4,44.0,32.2,23.0,31.0,24.3,18.0,100,75,38,28.16,28.04,11,1,12,0.00
2013-1-5,51.0,35.9,21.0,36.0,25.3,21.0,100,68,34,28.20,28.02,9,0,9,0.00
2013-1-6,51.0,38.8,31.0,44.0,36.9,31.0,100,93,65,28.02,27.86,13,1,13,0.00
2013-1-7,54.0,38.3,28.0,37.0,30.5,26.0,100,77,36,28.20,28.01,12,1,13,0.00
2013-1-8,57.0,35.9,20.0,47.0,33.8,21.0,100,93,59,28.24,28.10,8,0,8,0.00
2013-1-9,53.0,48.6,45.0,53.0,48.6,44.0,100,100,100,28.28,28.16,4,0,4,0.00
2013-1-10,65.0,51.1,40.0,62.0,50.4,40.0,100,98,79,28.31,28.14,10,1,10,0.01
2013-1-11,58.0,52.9,48.0,57.5,52.9,48.0,100,100,97,28.14,27.94,9,1,9,0.30
2013-1-12,72.0,61.1,55.0,71.7,60.5,54.5,100,98,80,27.98,27.90,8,0,8,0.00
2013-1-13,68.0,61.3,56.0,66.3,61.2,56.0,100,100,91,27.94,27.87,14,2,14,0.07
2013-1-14,60.0,55.3,44.0,60.0,55.1,44.0,100,99,95,28.02,27.86,11,0,11,1.08
2013-1-15,54.0,48.7,45.0,54.0,48.3,45.0,100,99,94,27.99,27.84,9,0,9,0.92
2013-1-16,56.0,51.2,46.0,54.5,50.4,46.0,100,97,89,27.85,27.77,4,0,4,0.32
2013-1-17,52.0,42.1,32.0,51.0,41.9,32.0,100,99,96,28.03,27.65,19,1,19,1.96
2013-1-18,52.0,33.8,24.0,36.0,28.8,23.0,100,85,35,28.32,28.03,14,1,14,0.00
2013-1-19,57.0,36.2,20.0,48.0,29.2,21.0,100,80,34,28.28,28.00,8,0,8,0.00
2013-1-20,59.0,39.6,25.0,43.0,31.1,26.0,100,75,37,28.02,27.86,12,1,13,0.00
2013-1-21,53.0,35.8,22.0,43.0,24.7,16.0,100,69,35,27.94,27.77,14,1,15,0.00
2013-1-22,35.0,24.8,18.0,16.0,7.5,0.0,68,46,24,28.05,27.85,14,2,14,0.00
2013-1-23,48.0,29.4,19.0,26.0,17.0,4.0,100,60,38,28.13,27.88,7,0,8,0.00
2013-1-24,41.0,30.6,20.0,36.0,18.2,4.0,100,62,24,28.22,27.78,23,2,23,0.00
2013-1-25,37.0,24.8,18.0,37.0,20.0,8.0,100,81,54,28.24,27.86,8,0,8,0.00
2013-1-26,48.0,35.5,24.0,37.0,29.9,23.0,100,83,40,28.14,27.89,10,1,10,0.00
2013-1-27,45.0,30.9,19.0,36.0,28.2,21.0,100,90,61,28.29,28.13,9,0,9,0.02
2013-1-28,64.0,45.4,30.0,57.0,43.4,31.0,100,94,62,28.22,28.00,13,1,13,0.00
2013-1-29,71.0,52.6,34.0,64.0,50.5,35.0,100,94,59,28.07,27.83,12,1,12,0.00
2013-1-30,62.0,57.7,45.0,62.0,57.5,44.0,100,99,87,27.83,27.33,26,3,26,2.81
2013-1-31,45.0,33.8,24.0,45.0,27.6,18.0,100,79,41,27.84,27.40,15,2,16,0.00
2013-2-1,42.0,26.0,16.0,37.0,18.0,8.0,100,71,40,28.14,27.71,17,2,18,0.00
2013-2-2,43.0,28.2,15.0,37.0,23.4,14.0,100,84,35,28.15,27.82,10,0,10,0.00
2013-2-3,46.0,34.8,27.0,40.0,29.8,24.0,100,83,49,27.86,27.69,18,2,19,0.00
2013-2-4,54.0,35.5,23.0,29.0,25.4,23.0,100,70,34,27.94,27.78,10,0,10,0.00
2013-2-5,59.0,40.3,27.0,41.0,33.5,28.0,100,80,43,27.86,27.70,11,1,11,0.00
2013-2-6,62.0,41.5,27.0,41.0,31.0,24.0,100,72,28,28.05,27.85,10,1,10,0.00
2013-2-7,43.0,36.5,29.0,41.0,35.9,29.0,100,97,65,28.07,27.82,3,0,3,0.43
2013-2-8,50.0,41.2,33.0,49.0,39.0,32.0,100,93,58,27.96,27.75,18,2,18,0.01
2013-2-9,62.0,39.3,28.0,33.0,27.1,14.0,100,69,17,28.15,27.95,13,1,14,0.00
2013-2-10,50.0,41.3,30.0,44.0,30.6,23.0,100,69,40,28.18,27.94,12,1,12,0.45
2013-2-11,58.0,50.5,43.0,58.0,48.0,29.0,100,92,56,27.96,27.79,9,1,10,0.06
2013-2-12,52.0,44.4,38.0,41.0,29.8,21.0,100,59,32,27.95,27.75,12,1,14,0.09
2013-2-13,54.0,40.4,34.0,52.0,39.6,35.0,100,97,61,27.78,27.47,14,1,14,0.23
2013-2-14,56.0,39.8,29.0,36.0,32.1,28.0,100,77,39,27.90,27.74,14,1,14,0.00
2013-2-15,59.0,38.6,22.0,46.0,32.0,23.0,100,82,33,27.94,27.74,15,1,15,0.00
2013-2-16,35.0,29.2,20.0,35.0,25.4,14.0,100,86,47,27.83,27.68,22,2,22,0.00
2013-2-17,35.0,24.6,18.0,18.0,12.6,8.0,91,59,34,28.05,27.80,21,3,21,0.00
2013-2-18,53.0,33.7,14.0,28.0,22.2,14.0,100,67,36,28.17,27.94,11,1,11,0.00
2013-2-19,53.0,41.7,33.0,52.0,29.0,14.0,100,64,33,27.96,27.68,19,2,19,0.10
2013-2-20,48.0,35.6,28.0,18.0,11.5,4.0,57,37,18,27.96,27.84,17,2,17,0.00
2013-2-21,64.0,40.2,21.0,43.0,20.6,11.0,100,52,15,28.03,27.83,9,1,9,0.25
2013-2-22,40.0,36.7,33.0,39.0,36.7,33.0,100,100,100,28.06,27.88,7,0,7,0.41
2013-2-23,54.0,44.8,37.0,54.0,44.7,37.0,100,100,94,27.90,27.65,4,0,4,0.25
2013-2-24,57.0,43.9,30.0,44.0,33.7,24.0,100,72,32,27.88,27.67,13,1,13,0.00
2013-2-25,47.0,35.1,26.0,35.0,29.1,26.0,100,80,47,27.96,27.82,8,0,8,0.00
2013-2-26,40.0,34.8,30.0,40.0,34.8,31.0,100,100,100,27.84,27.41,10,0,12,1.46
2013-2-27,59.0,42.9,30.0,44.0,35.8,26.0,100,79,39,27.63,27.48,13,1,17,0.00
2013-2-28,43.0,35.0,30.0,38.0,30.0,26.0,100,82,54,27.74,27.56,14,2,15,0.00
2013-3-1,42.0,33.2,29.0,35.0,31.6,29.0,100,93,69,27.76,27.70,17,1,17,0.00
2013-3-2,38.0,31.7,25.0,35.0,29.4,23.0,100,91,61,27.78,27.66,13,1,13,0.00
2013-3-3,34.0,25.2,21.0,26.0,19.3,16.0,100,79,51,27.84,27.74,19,2,20,0.00
2013-3-4,55.0,35.2,22.0,32.0,20.6,14.0,94,60,25,27.97,27.80,14,1,15,0.00
2013-3-5,54.0,41.7,32.0,51.0,40.8,31.0,100,97,68,27.88,27.46,15,1,15,0.76
2013-3-6,34.0,28.0,24.0,35.0,27.9,24.0,100,99,80,27.97,27.53,19,3,22,0.02
2013-3-7,45.0,31.1,26.0,33.0,28.8,26.0,100,92,57,28.08,27.94,20,2,21,0.00
2013-3-8,51.0,34.9,25.0,31.0,26.6,23.0,100,75,40,28.15,28.03,14,2,14,0.00
2013-3-9,63.0,41.9,19.0,38.0,28.0,21.0,100,64,30,28.15,28.00,9,1,9,0.00
2013-3-10,63.0,48.4,32.0,45.0,35.7,32.0,100,66,36,28.09,27.95,7,1,13,0.00
2013-3-11,56.0,50.3,47.0,56.0,48.8,37.0,100,96,57,27.98,27.66,13,2,13,0.76
2013-3-12,53.0,45.5,39.0,52.0,40.0,32.0,100,83,49,27.85,27.60,13,2,14,0.32
2013-3-13,46.0,36.7,26.0,38.0,26.8,18.0,100,68,39,28.00,27.84,21,2,21,0.00
2013-3-14,48.0,32.1,22.0,23.0,17.3,11.0,81,56,27,28.12,27.96,18,2,19,0.00
2013-3-15,68.0,45.7,23.0,43.0,31.4,21.0,100,62,29,28.02,27.71,12,1,12,0.00
2013-3-16,75.0,61.6,42.0,48.0,44.3,40.0,100,56,31,27.76,27.56,16,3,18,0.00
2013-3-17,74.0,58.1,46.0,54.0,48.4,44.0,100,74,37,27.85,27.66,12,1,12,0.00
2013-3-18,47.0,41.2,37.0,47.0,40.5,37.0,100,97,85,27.90,27.66,9,0,9,0.46
2013-3-19,57.0,44.8,37.0,42.0,28.9,14.0,100,58,26,27.90,27.70,19,2,19,0.01
2013-3-20,55.0,41.7,30.0,35.0,16.0,11.0,100,36,21,27.92,27.64,14,2,15,0.00
2013-3-21,37.0,27.7,19.0,29.0,17.8,14.0,100,67,39,27.78,27.64,18,2,18,0.01
2013-3-22,49.0,34.8,20.0,28.0,18.6,11.0,85,53,28,27.87,27.76,8,1,8,0.00
2013-3-23,62.0,43.5,34.0,48.0,38.3,26.0,100,83,57,27.85,27.68,7,0,7,0.05
2013-3-24,45.0,40.7,37.0,45.0,39.3,33.0,100,94,81,27.74,27.38,8,0,9,0.78
2013-3-25,38.0,33.6,28.0,38.0,26.5,21.0,100,75,55,27.74,27.38,18,3,18,0.00
2013-3-26,40.0,30.4,26.0,31.0,27.6,26.0,100,89,61,27.99,27.72,16,2,20,0.00
2013-3-27,47.0,34.3,27.0,31.0,26.7,24.0,100,75,47,28.10,27.98,16,2,18,0.00
2013-3-28,53.0,37.6,26.0,26.0,23.5,21.0,89,59,31,28.11,28.00,11,1,12,0.00
2013-3-29,59.0,38.3,22.0,42.0,30.1,21.0,100,78,28,28.16,28.02,11,1,11,0.00
2013-3-30,63.0,49.2,39.0,58.0,41.2,36.0,100,76,47,28.04,27.86,8,0,8,0.15
2013-3-31,65.0,53.1,46.0,61.0,47.3,39.0,100,82,56,27.87,27.66,11,1,11,0.25
2013-4-1,64.0,51.6,36.0,54.5,41.1,33.0,100,70,44,27.81,27.69,15,2,15,0.03
2013-4-2,58.0,46.4,35.0,35.0,27.2,21.0,80,49,27,28.01,27.80,11,1,12,0.00
2013-4-3,60.0,48.1,37.0,31.0,24.0,18.0,55,38,24,28.06,27.94,9,1,9,0.00
2013-4-4,47.0,37.8,33.0,37.0,32.5,23.0,100,84,40,28.05,27.79,8,0,8,0.71
2013-4-5,57.0,44.8,36.0,48.0,39.0,32.0,100,82,45,27.91,27.74,14,2,14,0.00
2013-4-6,66.0,50.4,31.0,47.0,36.8,29.0,100,66,32,28.05,27.90,11,1,11,0.00
2013-4-7,69.0,56.8,44.0,48.0,41.5,33.0,85,57,42,28.02,27.88,13,1,13,0.00
2013-4-8,73.0,58.1,39.0,57.5,48.3,36.0,100,73,47,27.99,27.86,13,2,15,0.00
2013-4-9,80.0,63.8,44.0,60.5,53.5,39.0,100,72,45,28.03,27.90,10,1,10,0.00
2013-4-10,83.0,67.0,47.0,63.0,55.6,42.0,100,71,38,27.96,27.79,11,1,11,0.00
2013-4-11,75.0,66.3,58.0,67.0,58.4,53.5,100,78,48,27.80,27.54,11,1,11,0.53
2013-4-12,70.0,61.5,52.0,66.0,50.3,37.0,100,68,46,27.72,27.50,16,2,16,0.88
2013-4-13,72.0,57.0,46.0,42.0,38.2,32.0,82,52,25,27.90,27.70,15,2,15,0.00
2013-4-14,69.0,53.3,35.0,54.5,43.3,35.0,100,74,37,27.95,27.80,12,1,13,0.00
2013-4-15,68.0,56.8,50.0,66.0,54.5,46.0,100,92,69,28.02,27.81,7,0,7,0.15
2013-4-16,78.0,64.7,56.0,66.0,58.2,50.0,100,81,54,28.10,27.98,9,1,9,0.00
2013-4-17,76.0,62.1,53.0,68.5,58.3,45.0,100,88,64,28.09,27.96,7,0,7,0.28
2013-4-18,74.0,64.5,55.0,67.5,58.1,44.0,100,80,59,27.98,27.78,11,1,12,0.00
2013-4-19,67.0,59.2,43.0,66.0,58.1,38.0,100,96,69,27.80,27.58,15,2,15,0.59
2013-4-20,61.0,45.7,35.0,39.0,32.7,28.0,96,63,33,28.12,27.79,16,2,17,0.00
2013-4-21,64.0,45.2,29.0,45.0,34.5,29.0,100,72,36,28.23,28.11,10,0,10,0.00
2013-4-22,68.0,49.3,35.0,47.5,38.9,35.0,100,71,37,28.21,28.00,7,0,8,0.00
2013-4-23,73.0,51.6,30.0,49.0,40.8,31.0,100,72,35,28.10,27.90,9,0,9,0.00
2013-4-24,71.0,57.0,43.0,63.0,52.4,40.0,100,86,61,27.96,27.82,16,1,18,0.00
2013-4-25,71.0,52.9,40.0,52.0,36.1,18.0,100,62,17,28.16,27.94,10,1,10,0.00
2013-4-26,67.0,51.1,35.0,41.0,36.6,31.0,100,62,34,28.23,28.10,7,0,7,0.00
2013-4-27,56.0,51.2,48.0,54.0,47.8,39.0,100,89,54,28.18,28.06,3,0,3,0.91
2013-4-28,52.0,49.3,46.0,48.0,40.9,33.0,100,74,53,28.07,27.84,7,0,7,1.99
2013-4-29,75.0,59.1,50.0,66.7,44.1,-23.0,100,64,1,27.90,27.76,8,0,9,0.07
2013-4-30,75.0,59.8,47.0,66.7,46.1,-6.0,100,65,8,28.00,27.83,10,0,10,0.00
2013-5-1,65.0,58.4,55.0,59.5,56.2,42.0,100,93,57,28.09,27.99,6,0,6,0.00
2013-5-2,65.0,56.4,52.0,63.5,51.8,24.0,100,87,31,28.10,28.04,8,0,8,0.03
2013-5-3,62.0,55.4,52.0,60.0,47.5,29.0,100,77,40,28.05,27.90,9,1,10,0.00
2013-5-4,55.0,49.4,46.0,55.0,46.1,21.0,100,90,32,27.90,27.79,10,1,10,0.46
2013-5-5,53.0,48.3,45.0,49.0,17.3,-40.0,91,35,1,27.81,27.66,10,1,10,2.87
2013-5-6,66.0,54.8,42.0,60.5,26.6,-40.0,100,55,13,27.76,27.63,9,1,9,0.01
2013-5-7,68.0,49.6,38.0,62.0,22.7,-40.0,100,43,1,27.81,27.69,8,0,8,0.27
2013-5-8,71.0,55.2,46.0,65.0,4.6,-40.0,100,34,1,27.90,27.77,8,0,8,0.04
2013-5-9,78.0,59.3,47.0,69.3,8.8,-40.0,100,34,1,27.95,27.86,7,0,8,0.28
2013-5-10,77.0,62.8,49.0,72.0,20.7,-40.0,100,45,1,27.97,27.80,11,1,12,0.00
2013-5-11,74.0,62.7,53.0,73.7,29.8,-40.0,100,51,1,27.82,27.66,8,0,8,0.57
2013-5-12,65.0,55.1,45.0,54.0,43.6,29.0,100,68,35,27.92,27.75,15,1,15,0.00
2013-5-13,65.0,50.9,41.0,42.0,34.4,29.0,100,56,29,28.04,27.90,10,1,10,0.00
2013-5-14,74.0,53.4,32.0,56.0,38.9,-6.0,100,63,15,28.08,27.90,9,0,9,0.00
2013-5-15,88.0,66.9,48.0,62.5,44.1,-40.0,100,53,1,27.94,27.78,8,0,8,0.00
2013-5-16,81.0,63.9,50.0,66.7,38.6,-40.0,100,54,1,27.90,27.79,5,0,5,0.00
2013-5-17,81.0,64.2,50.0,70.5,23.0,-40.0,100,41,1,27.96,27.85,8,0,8,0.00
2013-5-18,69.0,62.0,58.0,66.0,5.7,-40.0,100,26,1,27.96,27.89,8,0,8,1.13
2013-5-19,78.0,65.5,61.0,76.5,4.8,-23.0,100,27,1,27.94,27.84,8,0,8,0.28
2013-5-20,85.0,66.3,59.0,76.0,16.1,-23.0,100,36,2,27.95,27.84,6,0,6,0.04
2013-5-21,88.0,68.7,58.0,77.3,26.3,-40.0,100,42,6,27.91,27.78,8,0,8,0.03
2013-5-22,81.0,66.2,58.0,76.8,10.1,-40.0,100,30,2,27.87,27.72,11,0,11,1.01
2013-5-23,83.0,68.0,60.0,76.3,28.5,-23.0,100,44,17,27.82,27.67,11,0,11,0.03
2013-5-24,66.0,58.8,50.0,60.5,49.1,39.0,100,73,42,28.06,27.77,10,2,17,0.00
2013-5-25,78.0,58.5,43.0,49.0,40.5,31.0,100,57,22,28.16,27.99,11,1,11,0.00
2013-5-26,78.0,59.0,50.0,62.0,42.9,-40.0,99,66,1,28.12,27.98,7,0,7,0.06
2013-5-27,80.0,63.0,45.0,66.3,23.6,-40.0,98,41,1,28.12,27.95,8,0,8,0.00
2013-5-28,81.0,66.5,53.0,71.3,25.8,-40.0,99,43,2,28.04,27.96,9,1,10,0.00
2013-5-29,85.0,69.0,56.0,73.3,26.6,-40.0,100,40,2,28.06,27.97,8,0,8,0.00
2013-5-30,82.0,67.6,55.0,73.0,25.8,-40.0,100,47,54,28.11,27.99,7,0,7,0.00
2013-5-31,82.0,69.2,59.0,72.3,34.7,-23.0,100,47,1,28.07,27.94,8,1,9,0.00
2013-6-1,81.0,70.9,61.0,72.3,43.7,-23.0,100,57,1,27.99,27.86,11,1,11,0.00
2013-6-2,76.0,65.1,62.0,49.0,-21.9,-23.0,55,1,2,27.91,27.78,7,0,7,2.73
2013-6-3,81.0,67.9,61.0,75.5,14.1,-23.0,95,31,4,27.84,27.70,8,0,8,0.04
2013-6-4,83.0,68.8,57.0,75.5,27.7,-40.0,95,45,30,27.94,27.83,7,0,8,0.00
2013-6-5,80.0,68.7,62.0,76.8,17.9,-23.0,98,38,8,27.94,27.80,8,0,8,0.26
2013-6-6,74.0,67.4,63.0,68.5,2.5,-23.0,82,19,1,27.85,27.64,5,0,5,0.07
2013-6-7,81.0,66.7,61.0,77.3,-4.4,-23.0,96,17,12,27.72,27.54,7,0,7,2.61
2013-6-8,84.0,66.7,59.0,76.5,-5.3,-23.0,91,15,67,27.96,27.70,5,0,5,0.22
2013-6-9,81.0,67.1,60.0,77.7,-16.9,-23.0,92,4,3,28.00,27.87,13,0,15,0.74
2013-6-10,77.0,68.6,62.0,74.3,3.4,-23.0,97,22,4,27.90,27.75,9,1,10,1.03
2013-6-11,86.0,72.6,62.0,76.0,35.3,-23.0,95,48,24,27.90,27.80,9,0,9,0.06
2013-6-12,93.0,77.3,60.0,84.7,37.7,-23.0,93,48,32,27.90,27.77,5,0,5,0.00
2013-6-13,88.0,72.9,65.0,78.0,26.3,-23.0,97,35,3,27.82,27.58,8,1,8,0.01
2013-6-14,78.0,67.8,55.0,67.0,55.6,-40.0,100,70,7,27.93,27.69,12,1,12,0.00
2013-6-15,88.0,66.6,50.0,72.3,23.7,-40.0,100,43,24,28.01,27.87,8,0,8,0.00
2013-6-16,86.0,71.9,57.0,76.0,39.5,-40.0,98,53,4,28.00,27.86,6,0,6,0.00
2013-6-17,82.0,74.3,67.0,80.0,51.3,-23.0,100,68,2,27.90,27.79,5,0,5,0.13
2013-6-19,66.0,64.7,64.0,-23.0,-23.0,-23.0,0,0,100,27.97,27.83,0,0,0,0.00
2013-6-20,81.0,68.3,59.0,77.0,18.3,-23.0,98,38,1,28.08,27.97,6,0,7,0.00
2013-6-21,84.0,69.5,58.0,76.3,22.5,-40.0,97,38,3,28.11,28.00,5,0,5,0.00
2013-6-22,88.0,74.1,60.0,73.0,46.5,-23.0,97,55,1,28.09,27.94,5,0,5,0.00
2013-6-23,86.0,72.9,60.0,81.0,32.9,-23.0,97,48,14,28.07,27.95,6,0,6,0.00
2013-6-24,87.0,76.6,65.0,81.3,42.5,-23.0,96,56,11,28.07,27.92,7,0,7,0.08
2013-6-25,87.0,72.4,64.0,80.8,14.3,-23.0,97,33,36,28.01,27.88,4,0,5,0.03
2013-6-26,89.0,77.0,68.0,83.5,26.8,-23.0,95,42,25,27.91,27.78,4,0,5,0.44
2013-6-27,87.0,72.6,64.0,83.3,-4.1,-23.0,92,14,2,27.80,27.63,4,0,5,0.46
2013-6-28,86.0,74.4,65.0,81.3,20.7,-23.0,91,35,6,27.70,27.49,7,0,7,0.04
2013-6-29,87.0,77.8,64.0,79.0,51.7,-23.0,92,61,3,27.58,27.49,5,0,5,0.01
2013-6-30,86.0,76.1,64.0,77.3,45.4,-23.0,91,55,1,27.69,27.57,6,1,6,0.00
2013-7-1,81.0,70.7,64.0,77.3,12.5,-23.0,92,29,1,27.82,27.68,8,0,8,1.36
2013-7-2,81.0,71.4,64.0,69.7,1.8,-23.0,71,15,5,27.99,27.84,9,1,9,0.52
2013-7-3,75.0,66.2,60.0,-23.0,-23.0,-23.0,0,0,100,28.10,27.96,10,0,10,2.80
2013-7-4,75.0,65.5,61.0,-23.0,-23.0,-23.0,0,0,100,28.08,27.99,8,0,8,2.05
2013-7-5,82.0,70.0,65.0,74.7,-8.8,-23.0,79,10,10,28.08,27.99,5,0,7,0.30
2013-7-6,82.0,70.6,65.0,63.0,-18.3,-23.0,54,2,1,28.06,27.95,9,0,10,1.27
2013-7-7,80.0,71.9,66.0,39.0,-22.3,-23.0,24,0,4,28.02,27.93,9,0,9,0.23
2013-7-8,92.0,73.6,66.0,80.0,1.1,-23.0,75,17,10,28.05,27.92,6,0,7,0.80
2013-7-9,89.0,73.2,65.0,78.0,-7.0,-23.0,71,9,5,28.04,27.90,8,0,8,0.23
2013-7-10,88.0,71.0,63.0,63.5,-17.6,-23.0,49,2,4,28.00,27.82,6,0,6,1.07
2013-7-11,78.0,69.0,65.0,-23.0,-23.0,-23.0,0,0,100,27.85,27.74,3,0,3,0.00
2013-7-12,85.0,69.8,64.0,67.0,-18.8,-23.0,57,2,6,27.88,27.74,4,0,4,0.04
2013-7-13,77.0,67.8,61.0,-23.0,-23.0,-23.0,0,0,100,27.97,27.87,6,0,6,0.00
2013-7-14,72.0,68.2,65.0,-23.0,-23.0,-23.0,0,0,100,28.13,27.95,9,0,9,1.43
2013-7-15,87.0,72.5,65.0,74.0,-12.2,-23.0,68,6,3,28.17,28.08,5,0,5,1.84
2013-7-16,89.0,73.1,63.0,77.0,-7.3,-23.0,70,9,1,28.18,28.06,4,0,4,0.00
2013-7-17,91.0,72.3,64.0,75.0,-16.1,-23.0,63,3,1,28.14,28.02,6,0,6,0.15
2013-7-18,86.0,73.9,65.0,65.0,-10.9,-23.0,52,5,1,28.08,27.92,6,0,6,0.01
2013-7-19,91.0,74.5,65.0,80.0,-4.5,-23.0,70,11,1,28.00,27.83,7,0,8,0.00
2013-7-20,90.0,72.9,66.0,74.0,-15.9,-23.0,61,4,2,27.92,27.80,7,0,7,0.00
2013-7-21,87.0,70.8,65.0,63.0,-19.8,-23.0,47,1,1,27.88,27.80,5,0,6,0.21
2013-7-22,86.0,70.6,65.0,55.0,-22.3,-23.0,35,0,15,27.88,27.71,5,0,5,0.48
2013-7-23,90.0,72.9,65.0,78.0,-3.5,-23.0,72,12,2,27.78,27.65,7,0,8,0.04
2013-7-24,88.0,73.3,63.0,75.0,6.9,-23.0,74,18,3,27.75,27.66,8,0,8,0.01
2013-7-25,92.0,71.9,62.0,77.0,1.8,-23.0,77,16,9,27.92,27.75,5,0,5,0.00
2013-7-26,81.0,69.1,59.0,56.0,-9.5,-23.0,42,6,1,27.96,27.86,8,0,8,0.10
2013-7-27,83.0,70.7,64.0,57.0,-19.7,-23.0,45,1,2,27.91,27.74,6,0,6,1.35
2013-7-28,87.0,71.4,62.0,74.0,6.5,-23.0,73,19,6,27.92,27.76,4,0,5,0.00
2013-7-29,89.0,69.1,57.0,78.0,12.8,-40.0,83,28,1,28.06,27.89,4,0,4,0.00
2013-7-30,83.0,68.7,56.0,69.0,-4.3,-40.0,62,13,3,28.09,27.98,5,0,6,0.00
2013-7-31,75.0,68.6,65.0,-23.0,-23.0,-23.0,0,0,100,28.04,27.82,5,0,5,0.26
2013-8-1,85.0,72.1,65.0,64.0,-7.8,-23.0,59,8,1,27.85,27.76,9,0,9,0.17
2013-8-2,85.0,71.7,61.0,73.0,5.5,-23.0,72,19,2,27.91,27.82,7,0,7,0.00
2013-8-3,86.0,71.8,63.0,66.0,23.6,-23.0,96,35,4,27.91,27.83,4,0,4,0.00
2013-8-4,81.0,70.5,62.0,68.0,62.3,56.0,100,78,52,27.93,27.84,9,0,9,0.00
2013-8-5,83.0,70.0,59.0,68.0,62.7,59.0,100,81,53,27.95,27.82,6,0,6,0.00
2013-8-6,86.0,72.3,67.0,69.0,66.4,59.0,100,84,44,27.91,27.82,8,0,8,0.00
2013-8-7,72.0,69.1,68.0,71.0,68.1,66.0,100,98,92,27.93,27.87,6,0,6,1.49
2013-8-8,81.0,70.7,65.0,76.0,69.3,65.0,100,96,68,27.92,27.87,5,0,5,0.21
2013-8-9,89.0,72.8,66.0,78.0,69.7,66.0,100,92,52,27.96,27.87,5,0,5,0.05
2013-8-10,86.0,70.8,65.0,75.0,68.9,65.0,100,95,56,28.00,27.92,5,0,11,0.32
2013-8-11,85.0,70.5,65.0,78.0,69.1,65.0,100,96,63,28.02,27.93,4,0,4,0.57
2013-8-12,86.0,70.5,64.0,79.0,67.9,64.0,100,93,57,27.98,27.84,5,0,6,0.42
2013-8-13,83.0,70.1,65.0,76.0,68.0,65.0,100,94,66,27.87,27.70,6,0,7,0.08
2013-8-14,81.0,68.2,63.0,66.0,61.4,56.0,100,81,46,27.93,27.78,7,0,7,0.00
2013-8-15,71.0,62.3,56.0,62.0,57.1,53.0,100,85,60,28.00,27.92,5,0,5,0.00
2013-8-16,75.0,62.4,54.0,61.0,57.1,54.0,100,85,54,28.02,27.92,7,0,7,0.00
2013-8-17,70.0,62.6,57.0,62.0,58.9,55.0,100,89,66,28.03,27.96,3,0,4,0.17
2013-8-18,80.0,66.4,61.0,75.0,64.3,61.0,100,94,64,28.06,27.96,6,0,6,0.17
2013-8-19,75.0,66.8,63.0,71.0,65.7,63.0,100,97,74,28.06,27.94,5,0,5,1.11
2013-8-20,84.0,67.9,60.0,73.0,65.3,60.0,100,93,58,28.06,27.95,5,0,5,0.01
2013-8-21,75.0,68.2,63.0,72.0,66.5,63.0,100,95,79,28.09,27.98,4,0,4,0.05
2013-8-22,88.0,72.5,64.0,71.0,65.9,62.0,100,83,44,28.05,27.89,5,0,5,0.00
2013-8-23,85.0,70.8,61.0,71.0,64.6,61.0,100,84,49,27.96,27.84,7,0,7,0.00
2013-8-24,82.0,68.6,57.0,68.0,60.6,55.0,100,79,43,28.16,27.96,7,0,7,0.00
2013-8-25,84.0,64.1,50.0,62.0,56.2,50.0,100,80,40,28.24,28.11,5,0,5,0.00
2013-8-26,84.0,65.4,53.0,64.0,58.7,53.0,100,83,45,28.19,27.99,6,0,6,0.00
2013-8-27,83.0,68.3,55.0,69.0,62.6,55.0,100,84,55,28.04,27.88,6,0,6,0.00
2013-8-28,87.0,73.4,63.0,70.0,66.2,63.0,100,81,50,27.93,27.80,8,0,8,0.00
2013-8-29,88.0,76.4,68.0,70.0,67.7,64.0,96,77,49,27.87,27.77,9,0,9,0.00
2013-8-30,81.0,71.5,68.0,74.0,68.7,67.0,100,92,66,27.92,27.80,7,0,7,0.26
2013-8-31,88.0,72.4,66.0,71.0,67.7,64.0,100,88,52,27.84,27.74,7,0,9,0.00
2013-9-1,86.0,70.8,64.0,77.0,67.4,64.0,100,91,56,27.81,27.65,14,0,14,0.70
2013-9-2,86.0,71.0,64.0,76.0,67.4,64.0,100,90,52,27.82,27.69,4,0,4,0.00
2013-9-3,85.0,70.1,62.0,74.0,63.4,59.0,100,82,46,27.87,27.73,8,0,8,0.14
2013-9-4,89.0,69.6,58.0,67.0,62.7,58.0,100,83,42,27.99,27.86,4,0,4,0.00
2013-9-5,88.0,68.5,57.0,67.0,59.7,48.0,100,79,31,28.03,27.91,4,0,5,0.00
2013-9-6,83.0,66.1,54.0,66.0,58.9,54.0,100,81,46,28.06,27.93,6,0,6,0.00
2013-9-7,88.0,67.1,57.0,67.0,60.3,57.0,100,83,42,28.00,27.83,6,0,6,0.00
2013-9-8,81.0,67.3,57.0,69.0,62.2,57.0,100,86,54,27.91,27.80,6,0,6,0.00
2013-9-9,87.0,70.4,60.0,69.0,63.9,60.0,100,83,48,28.02,27.89,7,0,7,0.00
2013-9-10,89.0,70.1,59.0,71.0,63.2,59.0,100,83,42,28.11,27.99,6,0,6,0.00
2013-9-11,85.0,69.5,61.0,76.0,66.0,61.0,100,91,54,28.10,27.95,5,0,5,0.07
2013-9-12,85.0,70.5,63.0,72.0,65.5,62.0,100,86,55,27.98,27.75,10,0,10,0.02
2013-9-13,79.0,67.3,58.0,64.0,57.5,48.0,100,74,41,27.78,27.68,10,1,12,0.01
2013-9-14,81.0,61.1,48.0,56.0,51.4,47.0,100,75,37,27.97,27.79,3,0,7,0.00
2013-9-15,78.0,61.4,49.0,62.0,55.9,49.0,100,85,51,28.05,27.93,6,0,7,0.00
2013-9-16,83.0,65.8,55.0,66.0,58.3,53.0,100,81,40,28.02,27.91,6,0,6,0.00
2013-9-17,72.0,63.1,58.0,63.0,56.0,51.0,97,79,56,28.12,28.00,7,0,7,0.00
2013-9-18,71.0,60.6,53.0,59.0,56.1,52.0,100,87,61,28.11,28.00,5,0,5,0.00
2013-9-19,83.0,67.0,59.0,66.0,61.7,59.0,100,86,49,28.03,27.91,5,0,5,0.00
2013-9-20,88.0,69.4,59.0,68.0,62.0,58.0,100,82,38,27.95,27.75,6,0,7,0.00
2013-9-21,67.0,62.4,60.0,66.0,62.0,60.0,100,99,93,27.81,27.60,10,0,10,1.51
2013-9-22,77.0,62.7,54.0,61.0,55.0,50.0,100,79,43,27.79,27.63,4,1,11,0.00
2013-9-23,77.0,61.7,52.0,61.0,55.6,52.0,100,84,48,27.90,27.79,7,0,7,0.00
2013-9-24,77.0,62.7,53.0,62.0,57.9,53.0,100,87,50,27.94,27.78,7,0,7,0.00
2013-9-25,61.0,59.9,59.0,61.0,59.9,59.0,100,100,100,27.80,27.73,2,0,2,1.06
2013-9-26,75.0,68.2,60.0,64.0,60.8,57.0,100,78,61,27.86,27.77,3,0,3,0.00
2013-9-27,80.0,75.4,60.0,60.0,57.9,54.0,92,55,50,28.00,27.86,4,0,4,0.00
2013-9-29,79.0,65.0,58.0,59.0,55.0,52.0,98,73,47,28.00,27.84,5,0,5,0.00
2013-9-30,76.0,61.5,50.0,60.0,54.8,50.0,100,81,45,27.94,27.83,4,0,4,0.00
2013-10-2,59.0,58.5,53.0,59.0,58.5,53.0,100,100,100,28.00,27.98,0,0,0,0.00
2013-10-3,87.0,63.9,57.0,63.0,59.0,56.0,100,88,38,27.98,27.87,4,0,4,0.00
2013-10-4,85.0,66.4,54.0,65.0,58.6,54.0,100,80,44,28.03,27.90,3,0,3,0.00
2013-10-5,82.0,69.8,60.0,65.0,61.0,59.0,99,78,51,27.96,27.92,0,0,0,0.00
2013-10-6,60.0,59.2,56.0,59.0,58.4,56.0,100,99,99,27.95,27.90,0,0,0,0.00
2013-10-7,68.0,60.2,54.0,63.0,54.5,49.0,100,83,62,27.88,27.69,8,2,8,0.14
2013-10-8,61.0,60.4,58.0,56.0,55.8,50.0,89,85,84,28.00,27.88,3,0,3,0.00
2013-10-10,70.0,66.7,61.0,51.0,50.2,50.0,69,57,50,27.95,27.88,6,3,7,0.00
2013-10-11,75.0,68.0,58.0,54.0,53.2,50.0,86,60,43,27.90,27.78,6,2,6,0.00
2013-10-12,74.0,66.6,54.0,58.0,55.9,53.0,100,71,55,27.92,27.84,7,1,8,0.00
2013-10-13,61.0,61.0,61.0,60.0,60.0,60.0,98,98,98,28.02,28.02,0,0,0,0.00
2013-10-17,56.0,56.0,56.0,54.0,54.0,54.0,94,94,94,27.78,27.78,4,2,4,0.00
2013-10-18,56.0,55.1,55.0,54.0,53.1,53.0,94,94,94,27.78,27.78,5,3,6,0.00
2013-10-19,62.0,61.2,61.0,50.0,49.8,49.0,68,66,62,27.72,27.70,4,2,5,0.00
2013-10-22,68.0,64.4,62.0,47.0,47.0,47.0,59,55,48,27.71,27.66,4,2,4,0.00
2013-10-23,56.0,50.9,40.0,41.0,33.4,29.0,65,52,38,27.82,27.64,8,4,8,0.00
2013-10-24,55.0,47.8,45.0,36.0,34.2,32.0,70,60,43,27.96,27.90,6,1,6,0.00
2013-10-25,51.0,37.3,25.0,36.0,26.4,23.0,99,66,36,28.18,27.96,10,1,10,0.00
2013-10-26,63.0,43.0,25.0,37.0,31.4,26.0,100,69,28,28.15,27.89,6,0,6,0.00
2013-10-27,70.0,54.1,40.0,48.0,42.5,37.0,97,67,40,27.97,27.86,11,0,11,0.00
2013-10-28,62.0,51.3,44.0,61.0,50.1,44.0,100,96,79,28.08,27.94,3,0,3,0.09
2013-10-29,72.0,55.4,44.0,58.0,49.0,44.0,100,83,41,28.16,28.04,5,0,5,0.00
2013-10-30,78.0,60.1,49.0,61.0,52.8,49.0,100,81,39,28.11,27.96,7,0,7,0.00
2013-10-31,65.0,60.3,55.0,61.0,55.5,50.0,99,86,64,28.01,27.70,11,1,11,0.01
2013-11-1,81.0,64.5,49.0,64.0,55.9,44.0,100,77,31,27.70,27.46,21,1,21,0.16
2013-11-2,63.0,50.7,42.0,47.0,41.1,35.0,97,72,42,27.78,27.61,10,1,11,0.00
2013-11-3,59.0,47.0,31.0,40.0,33.2,29.0,100,62,33,28.19,27.83,7,2,7,0.00
2013-11-4,56.0,36.2,27.0,31.0,29.5,28.0,100,81,36,28.28,28.17,2,0,2,0.00
2013-11-5,54.0,51.6,50.0,35.0,32.6,29.0,52,48,39,28.30,28.20,2,0,2,0.00
2013-11-6,71.0,58.6,45.0,53.0,48.5,35.0,100,72,49,28.20,28.00,8,1,8,0.00
2013-11-7,60.0,51.7,42.0,51.0,45.0,33.0,100,80,49,27.94,27.85,15,2,15,0.01
2013-11-8,55.0,41.1,26.0,29.0,22.6,14.0,93,52,21,28.13,27.99,13,2,13,0.00
2013-11-9,60.0,40.0,22.0,35.0,27.9,23.0,100,68,28,28.18,28.01,5,0,5,0.00
2013-11-10,68.0,49.1,33.0,37.0,30.9,23.0,86,54,24,28.08,27.96,12,1,12,0.00
2013-11-11,68.0,45.5,26.0,32.0,26.7,21.0,98,52,22,28.16,27.96,8,0,8,0.00
2013-11-12,54.0,36.8,23.0,38.0,27.5,14.0,91,69,38,28.26,27.90,17,2,17,0.00
2013-11-13,47.0,28.4,20.0,21.0,16.0,14.0,96,63,26,28.33,28.22,13,1,13,0.00
2013-11-14,65.0,33.9,15.0,29.0,18.6,8.0,100,63,15,28.26,28.07,5,0,5,0.00
2013-11-15,53.0,40.0,24.0,49.0,36.4,21.0,100,87,57,28.14,27.99,4,0,4,0.10
2013-11-16,63.0,53.6,48.0,59.0,51.9,48.0,100,94,78,28.06,27.95,5,0,5,0.02
2013-11-17,58.0,56.1,55.0,57.0,55.0,53.0,100,97,91,28.00,27.72,3,0,3,0.33
2013-11-18,65.0,56.3,46.0,59.0,40.8,28.0,100,59,32,27.85,27.68,17,2,17,0.01
2013-11-19,57.0,43.4,36.0,32.0,26.1,21.0,77,51,26,28.04,27.85,15,1,15,0.00
2013-11-20,52.0,38.2,27.0,32.0,26.2,23.0,94,63,34,28.21,28.04,7,0,7,0.00
2013-11-21,47.0,45.1,37.0,47.0,40.4,29.0,100,84,66,28.26,28.17,3,0,3,0.01
2013-11-22,63.0,56.6,51.0,57.0,55.0,51.0,100,95,82,28.11,27.95,7,1,7,0.00
2013-11-23,57.0,48.8,33.0,54.0,42.9,23.0,97,81,61,28.05,27.94,15,3,15,0.00
2013-11-24,34.0,25.0,16.0,21.0,12.1,4.0,92,57,31,28.28,28.04,16,2,17,0.01
2013-11-25,39.0,27.7,14.0,26.0,12.1,4.0,100,55,22,28.30,28.08,6,0,6,0.00
2013-11-26,44.0,36.9,30.0,44.0,36.2,23.0,100,97,73,28.10,27.50,7,0,8,2.54
2013-11-27,43.0,29.3,22.0,43.0,26.3,16.0,100,87,70,28.00,27.48,19,2,19,0.08
2013-11-28,52.0,29.3,15.0,24.0,18.4,0.0,100,69,12,28.25,27.99,18,0,18,0.00
2013-11-29,58.0,34.3,20.0,37.0,23.8,21.0,100,72,24,28.36,28.20,5,0,5,0.00
2013-11-30,49.0,32.2,19.0,32.0,23.0,21.0,100,72,33,28.39,28.17,6,0,6,0.00
2013-12-1,62.0,41.1,21.0,37.0,30.8,21.0,100,71,35,28.17,27.84,6,0,6,0.00
2013-12-2,58.0,41.3,26.0,41.0,34.8,26.0,100,80,48,27.87,27.62,4,0,4,0.00
2013-12-3,58.0,48.5,41.0,49.0,43.3,40.0,98,84,68,27.76,27.69,8,0,8,0.00
2013-12-4,66.0,61.1,58.0,56.0,54.7,54.0,94,81,67,27.84,27.76,5,1,5,0.00
2013-12-5,63.0,62.3,58.0,63.0,62.2,56.0,100,100,91,27.83,27.81,5,0,5,0.07
2013-12-6,69.0,64.1,52.0,64.0,61.2,52.0,100,91,77,27.91,27.77,15,1,15,0.92
2013-12-7,53.0,45.2,40.0,52.0,42.1,37.0,100,90,74,28.14,27.86,9,1,9,0.00
2013-12-8,41.0,35.9,35.0,41.0,35.7,35.0,100,99,96,28.16,28.06,6,0,6,0.21
2013-12-9,52.0,46.4,35.0,51.0,46.2,35.0,100,100,96,28.06,27.87,7,1,7,0.42
2013-12-10,46.0,36.6,30.0,44.0,29.2,21.0,99,73,64,28.11,27.76,17,2,17,0.01
2013-12-11,54.0,33.7,18.0,31.0,20.3,11.0,100,64,21,28.24,28.07,7,0,7,0.00
2013-12-12,43.0,30.9,20.0,23.0,14.7,4.0,85,53,20,28.24,28.10,12,1,13,0.00
2013-12-13,54.0,32.8,16.0,28.0,18.9,14.0,100,62,24,28.18,28.01,5,0,5,0.00
2013-12-14,43.0,38.5,35.0,41.0,34.0,24.0,100,85,52,28.04,27.63,5,0,5,0.73
2013-12-15,43.0,35.6,27.0,42.0,32.1,26.0,100,86,68,27.92,27.59,14,1,14,0.00
2013-12-16,57.0,36.2,21.0,43.0,26.8,21.0,100,74,27,28.00,27.87,9,0,9,0.00
2013-12-17,60.0,41.1,23.0,38.0,27.7,21.0,100,66,27,27.97,27.74,19,2,19,0.00
2013-12-18,51.0,34.5,23.0,23.0,16.1,4.0,86,50,15,28.12,27.90,12,1,13,0.00
2013-12-19,63.0,40.1,19.0,31.0,23.3,16.0,100,59,22,28.14,27.97,10,0,10,0.00
2013-12-20,65.0,51.3,42.0,49.0,33.1,23.0,88,53,24,28.03,27.91,10,0,10,0.00
2013-12-21,64.0,57.1,53.0,62.0,54.7,49.0,100,93,88,27.95,27.78,14,2,14,0.20
2013-12-22,64.0,58.0,55.0,63.0,57.6,55.0,100,99,94,27.90,27.77,11,1,11,2.38
2013-12-23,56.0,46.9,33.0,56.0,44.7,31.0,100,92,77,28.04,27.83,17,1,17,0.26
2013-12-24,35.0,28.8,19.0,31.0,22.4,16.0,92,77,55,28.21,28.01,13,1,14,0.00
2013-12-25,41.0,24.6,13.0,28.0,15.7,8.0,100,73,29,28.28,28.14,7,0,7,0.00
2013-12-26,51.0,30.2,18.0,28.0,21.8,16.0,100,75,30,28.18,28.03,12,1,12,0.00
2013-12-27,54.0,31.1,18.0,40.0,23.1,16.0,100,77,25,28.28,28.13,6,0,6,0.00
2013-12-28,43.0,31.6,18.0,39.0,29.4,18.0,100,91,57,28.23,27.91,5,0,6,0.24
2013-12-29,54.0,42.3,36.0,48.0,38.4,32.0,100,87,66,27.91,27.63,10,1,15,0.71
2013-12-30,46.0,40.1,33.0,38.0,35.3,29.0,98,83,70,27.97,27.79,8,0,8,0.00
2013-12-31,43.0,32.1,22.0,31.0,22.5,14.0,97,70,34,28.17,27.94,10,0,10,0.00
2014-1-1,47.0,32.1,21.0,32.0,25.7,21.0,100,79,40,28.18,27.95,6,0,6,0.00
2014-1-2,46.0,33.3,17.0,46.0,32.2,18.0,100,95,72,27.96,27.49,22,1,22,0.06